createdAt,value
2023-04-19T00:02:26.630Z,4.20
2023-04-19T00:04:56.444Z,4.83
2023-04-19T00:07:24.315Z,4.33
2023-04-19T00:09:52.188Z,4.50
2023-04-19T00:12:20.003Z,4.10
2023-04-19T00:14:47.860Z,4.13
2023-04-19T00:17:15.728Z,3.60
2023-04-19T00:19:44.497Z,3.97
2023-04-19T00:22:13.658Z,4.07
2023-04-19T00:24:41.454Z,4.03
2023-04-19T00:27:09.261Z,4.67
2023-04-19T00:29:37.073Z,4.50
2023-04-19T00:32:05.957Z,3.97
2023-04-19T00:34:33.914Z,3.93
2023-04-19T00:37:02.075Z,3.90
2023-04-19T00:39:31.283Z,4.30
2023-04-19T00:41:59.074Z,3.90
2023-04-19T00:44:26.797Z,3.93
2023-04-19T00:46:55.441Z,4.30
2023-04-19T00:49:24.535Z,4.20
2023-04-19T00:51:52.768Z,4.47
2023-04-19T00:54:21.081Z,4.43
2023-04-19T00:56:50.486Z,4.17
2023-04-19T00:59:18.582Z,4.43
2023-04-19T01:01:46.663Z,4.70
2023-04-19T01:04:14.952Z,4.77
2023-04-19T01:06:43.419Z,4.60
2023-04-19T01:09:11.440Z,4.20
2023-04-19T01:11:40.753Z,4.50
2023-04-19T01:14:11.099Z,4.37
2023-04-19T01:16:39.058Z,4.90
2023-04-19T01:19:06.860Z,4.60
2023-04-19T01:21:34.680Z,5.03
2023-04-19T01:24:03.977Z,4.77
2023-04-19T01:26:31.860Z,4.60
2023-04-19T01:28:59.579Z,4.80
2023-04-19T01:31:27.407Z,4.97
2023-04-19T01:33:55.143Z,5.10
2023-04-19T01:36:22.927Z,4.87
2023-04-19T01:38:51.216Z,4.80
2023-04-19T01:41:22.699Z,4.70
2023-04-19T01:43:50.431Z,5.30
2023-04-19T01:46:18.287Z,4.60
2023-04-19T01:48:46.054Z,5.37
2023-04-19T01:51:13.835Z,5.00
2023-04-19T01:53:41.531Z,5.03
2023-04-19T01:56:09.290Z,5.50
2023-04-19T01:58:38.386Z,5.10
2023-04-19T02:01:06.392Z,4.87
2023-04-19T02:03:34.274Z,5.67
2023-04-19T02:06:02.435Z,5.10
2023-04-19T02:08:30.239Z,4.50
2023-04-19T02:10:58.195Z,5.27
2023-04-19T02:13:25.937Z,5.33
2023-04-19T02:15:55.107Z,5.67
2023-04-19T02:18:24.179Z,5.80
2023-04-19T02:20:53.033Z,5.33
2023-04-19T02:23:20.842Z,5.00
2023-04-19T02:25:48.619Z,4.80
2023-04-19T02:28:16.353Z,4.37
2023-04-19T02:30:44.173Z,4.50
2023-04-19T02:33:13.609Z,4.90
2023-04-19T02:35:41.322Z,4.80
2023-04-19T02:38:09.093Z,4.60
2023-04-19T02:40:37.044Z,5.13
2023-04-19T02:43:05.255Z,5.07
2023-04-19T02:45:33.056Z,4.63
2023-04-19T02:48:01.236Z,4.90
2023-04-19T02:50:30.779Z,4.90
2023-04-19T02:52:59.518Z,5.00
2023-04-19T02:55:27.222Z,5.07
2023-04-19T02:57:55.009Z,5.13
2023-04-19T03:00:22.968Z,4.77
2023-04-19T03:02:50.951Z,4.67
2023-04-19T03:05:18.958Z,5.13
2023-04-19T03:07:48.076Z,5.40
2023-04-19T03:10:16.024Z,4.90
2023-04-19T03:12:43.734Z,5.37
2023-04-19T03:15:12.301Z,5.27
2023-04-19T03:17:40.187Z,5.13
2023-04-19T03:20:11.634Z,4.70
2023-04-19T03:22:39.835Z,5.23
2023-04-19T03:25:12.511Z,5.30
2023-04-19T03:27:40.475Z,5.23
2023-04-19T03:30:09.342Z,5.30
2023-04-19T03:32:37.143Z,4.77
2023-04-19T03:35:05.621Z,5.30
2023-04-19T03:37:33.335Z,5.77
2023-04-19T03:40:01.104Z,5.27
2023-04-19T03:42:30.303Z,5.10
2023-04-19T03:44:58.226Z,5.07
2023-04-19T03:47:26.059Z,5.40
2023-04-19T03:49:53.759Z,5.50
2023-04-19T03:52:21.535Z,5.10
2023-04-19T03:54:49.469Z,5.33
2023-04-19T03:57:18.677Z,5.30
2023-04-19T03:59:47.876Z,5.47
2023-04-19T04:02:15.823Z,5.13
2023-04-19T04:04:43.749Z,5.27
2023-04-19T04:07:11.716Z,4.97
2023-04-19T04:09:39.480Z,5.17
2023-04-19T04:12:07.611Z,4.73
2023-04-19T04:14:35.406Z,4.93
2023-04-19T04:17:04.515Z,5.20
2023-04-19T04:19:32.338Z,4.83
2023-04-19T04:22:00.119Z,5.27
2023-04-19T04:24:28.043Z,5.07
2023-04-19T04:26:57.939Z,5.20
2023-04-19T04:29:25.884Z,5.20
2023-04-19T04:31:53.694Z,5.30
2023-04-19T04:34:23.013Z,5.17
2023-04-19T04:36:50.921Z,4.67
2023-04-19T04:39:19.312Z,4.77
2023-04-19T04:41:47.405Z,5.30
2023-04-19T04:44:15.443Z,5.37
2023-04-19T04:46:43.247Z,4.90
2023-04-19T04:49:11.145Z,5.47
2023-04-19T04:51:40.321Z,5.17
2023-04-19T04:54:08.324Z,4.90
2023-04-19T04:56:36.978Z,4.23
2023-04-19T04:59:04.860Z,4.80
2023-04-19T05:01:32.771Z,4.57
2023-04-19T05:04:00.877Z,4.80
2023-04-19T05:06:28.666Z,5.30
2023-04-19T05:08:57.816Z,4.57
2023-04-19T05:11:25.653Z,4.73
2023-04-19T05:13:53.418Z,4.67
2023-04-19T05:16:21.615Z,4.50
2023-04-19T05:18:49.559Z,4.47
2023-04-19T05:21:17.387Z,4.40
2023-04-19T05:23:45.269Z,4.60
2023-04-19T05:26:15.575Z,4.60
2023-04-19T05:28:44.731Z,4.57
2023-04-19T05:31:13.515Z,4.47
2023-04-19T05:33:41.596Z,4.17
2023-04-19T05:36:09.852Z,4.50
2023-04-19T05:38:37.670Z,4.40
2023-04-19T05:41:05.654Z,3.87
2023-04-19T05:43:34.873Z,4.30
2023-04-19T05:46:02.715Z,3.97
2023-04-19T05:48:30.919Z,4.23
2023-04-19T05:50:59.700Z,4.37
2023-04-19T05:53:27.464Z,4.77
2023-04-19T05:55:55.444Z,4.30
2023-04-19T05:58:23.419Z,3.93
2023-04-19T06:00:53.182Z,4.10
2023-04-19T06:03:21.172Z,4.50
2023-04-19T06:05:49.504Z,4.13
2023-04-19T06:08:17.716Z,4.67
2023-04-19T06:10:54.466Z,3.80
2023-04-19T06:13:24.838Z,3.80
2023-04-19T06:15:54.079Z,4.03
2023-04-19T06:18:22.064Z,4.20
2023-04-19T06:20:51.612Z,4.13
2023-04-19T06:23:19.533Z,4.10
2023-04-19T06:25:48.731Z,4.53
2023-04-19T06:28:16.916Z,3.73
2023-04-19T06:30:44.640Z,3.87
2023-04-19T06:33:13.864Z,4.00
2023-04-19T06:35:41.961Z,3.67
2023-04-19T06:38:10.061Z,3.83
2023-04-19T06:40:38.188Z,4.10
2023-04-19T06:43:06.160Z,3.63
2023-04-19T06:45:34.136Z,3.70
2023-04-19T06:48:02.196Z,3.70
2023-04-19T06:50:31.650Z,3.90
2023-04-19T06:52:59.599Z,3.80
2023-04-19T06:55:27.332Z,3.77
2023-04-19T06:57:55.134Z,3.70
2023-04-19T07:00:23.634Z,4.50
2023-04-19T07:02:52.407Z,3.97
2023-04-19T07:05:20.389Z,4.60
2023-04-19T07:07:49.899Z,3.77
2023-04-19T07:10:17.874Z,3.87
2023-04-19T07:12:45.617Z,3.90
2023-04-19T07:15:13.523Z,3.93
2023-04-19T07:17:41.651Z,3.73
2023-04-19T07:20:10.055Z,3.87
2023-04-19T07:22:37.897Z,4.10
2023-04-19T07:25:08.213Z,3.30
2023-04-19T07:27:36.070Z,4.10
2023-04-19T07:30:03.953Z,4.20
2023-04-19T07:32:32.443Z,3.93
2023-04-19T07:35:00.690Z,3.40
2023-04-19T07:37:28.713Z,4.20
2023-04-19T07:39:56.633Z,3.90
2023-04-19T07:42:26.083Z,4.30
2023-04-19T07:44:53.774Z,3.53
2023-04-19T07:47:21.589Z,4.00
2023-04-19T07:49:53.119Z,4.13
2023-04-19T07:52:20.854Z,3.70
2023-04-19T07:54:48.671Z,3.87
2023-04-19T07:57:16.545Z,3.83
2023-04-19T07:59:46.030Z,4.07
2023-04-19T08:02:13.978Z,4.23
2023-04-19T08:04:41.985Z,4.30
2023-04-19T08:07:10.540Z,3.77
2023-04-19T08:09:38.930Z,3.90
2023-04-19T08:12:07.179Z,4.27
2023-04-19T08:14:47.493Z,3.90
2023-04-19T08:17:27.452Z,4.17
2023-04-19T08:19:57.152Z,3.80
2023-04-19T08:22:24.996Z,3.70
2023-04-19T08:24:53.429Z,3.57
2023-04-19T08:27:21.849Z,3.90
2023-04-19T08:29:49.712Z,3.63
2023-04-19T08:32:17.716Z,3.73
2023-04-19T08:34:47.595Z,3.60
2023-04-19T08:37:15.848Z,3.30
2023-04-19T08:39:43.683Z,3.17
2023-04-19T08:42:24.578Z,3.30
2023-04-19T08:47:52.056Z,3.57
2023-04-19T08:50:33.167Z,2.73
2023-04-19T08:55:35.190Z,3.60
2023-04-19T08:58:09.677Z,3.57
2023-04-19T09:00:41.372Z,3.23
2023-04-19T09:03:09.905Z,3.77
2023-04-19T09:05:39.462Z,3.63
2023-04-19T09:08:23.367Z,3.30
2023-04-19T09:10:55.633Z,3.20
2023-04-19T09:13:23.600Z,3.10
2023-04-19T09:15:53.644Z,2.70
2023-04-19T09:18:21.843Z,3.10
2023-04-19T09:20:51.181Z,3.17
2023-04-19T09:23:20.193Z,3.00
2023-04-19T09:26:19.367Z,2.93
2023-04-19T09:28:56.997Z,3.10
2023-04-19T09:33:58.551Z,2.53
2023-04-19T09:36:32.677Z,2.60
2023-04-19T09:39:00.963Z,2.70
2023-04-19T09:41:28.787Z,2.27
2023-04-19T09:44:50.188Z,2.37
2023-04-19T09:46:58.693Z,2.00
2023-04-19T09:49:41.718Z,2.03
2023-04-19T09:52:16.667Z,1.60
2023-04-19T09:54:46.041Z,1.83
2023-04-19T09:57:14.316Z,2.20
2023-04-19T09:59:42.209Z,2.10
2023-04-19T10:02:13.716Z,2.20
2023-04-19T10:07:30.214Z,2.40
2023-04-19T10:15:05.474Z,1.73
2023-04-19T10:17:33.447Z,2.23
2023-04-19T10:20:07.857Z,1.77
2023-04-19T10:22:38.835Z,1.97
2023-04-19T10:25:11.041Z,1.73
2023-04-19T10:27:38.892Z,1.60
2023-04-19T10:30:12.712Z,1.73
2023-04-19T10:32:42.018Z,1.70
2023-04-19T10:35:12.814Z,1.73
2023-04-19T10:38:02.752Z,1.70
2023-04-19T10:41:00.617Z,1.77
2023-04-19T10:43:30.473Z,1.70
2023-04-19T10:46:02.370Z,2.10
2023-04-19T10:48:39.150Z,1.87
2023-04-19T10:51:14.446Z,1.63
2023-04-19T10:53:48.852Z,1.53
2023-04-19T10:56:17.877Z,1.40
2023-04-19T10:59:21.288Z,1.50
2023-04-19T11:01:51.713Z,1.50
2023-04-19T11:04:21.272Z,1.33
2023-04-19T11:07:01.717Z,1.40
2023-04-19T11:09:35.291Z,1.43
2023-04-19T11:12:05.217Z,0.93
2023-04-19T11:14:35.652Z,1.30
2023-04-19T11:17:05.827Z,1.47
2023-04-19T11:19:33.690Z,1.10
2023-04-19T11:22:01.606Z,1.10
2023-04-19T11:24:29.391Z,1.33
2023-04-19T11:26:59.052Z,1.10
2023-04-19T11:29:26.951Z,1.30
2023-04-19T11:31:54.721Z,1.10
2023-04-19T11:34:24.647Z,1.50
2023-04-19T11:36:53.152Z,1.47
2023-04-19T11:39:21.579Z,1.50
2023-04-19T11:41:49.371Z,1.40
2023-04-19T11:44:20.923Z,1.40
2023-04-19T11:47:02.361Z,1.53
2023-04-19T11:49:31.782Z,1.50
2023-04-19T11:52:03.035Z,1.20
2023-04-19T11:54:33.113Z,1.30
2023-04-19T11:57:05.138Z,1.50
2023-04-19T11:59:36.302Z,1.50
2023-04-19T12:02:11.581Z,1.33
2023-04-19T12:04:40.475Z,1.50
2023-04-19T12:07:08.542Z,1.30
2023-04-19T12:09:38.649Z,1.43
2023-04-19T12:12:06.923Z,1.20
2023-04-19T12:14:36.093Z,1.10
2023-04-19T12:17:15.883Z,1.30
2023-04-19T12:19:46.119Z,1.20
2023-04-19T12:22:15.675Z,1.20
2023-04-19T12:24:44.492Z,1.10
2023-04-19T12:27:12.628Z,1.70
2023-04-19T12:29:41.763Z,1.50
2023-04-19T12:32:11.897Z,1.40
2023-04-19T12:34:39.733Z,1.27
2023-04-19T12:37:09.545Z,1.23
2023-04-19T12:39:37.526Z,1.33
2023-04-19T12:42:06.457Z,1.27
2023-04-19T12:44:34.243Z,1.20
2023-04-19T12:47:03.431Z,1.10
2023-04-19T12:49:31.205Z,1.30
2023-04-19T12:51:58.908Z,1.30
2023-04-19T12:54:26.802Z,1.50
2023-04-19T12:56:55.183Z,1.53
2023-04-19T12:59:23.751Z,1.40
2023-04-19T13:01:51.865Z,1.20
2023-04-19T13:04:21.239Z,1.40
2023-04-19T13:06:49.271Z,1.27
2023-04-19T13:09:17.062Z,1.47
2023-04-19T13:11:44.986Z,1.40
2023-04-19T13:14:12.841Z,1.40
2023-04-19T13:16:40.616Z,1.67
2023-04-19T13:19:08.473Z,1.20
2023-04-19T13:21:37.679Z,1.47
2023-04-19T13:24:05.858Z,1.53
2023-04-19T13:26:34.429Z,1.40
2023-04-19T13:29:02.321Z,1.30
2023-04-19T13:31:30.718Z,1.83
2023-04-19T13:34:00.511Z,1.37
2023-04-19T13:36:28.474Z,1.50
2023-04-19T13:38:58.171Z,1.67
2023-04-19T13:41:26.198Z,1.40
2023-04-19T13:43:54.057Z,1.53
2023-04-19T13:46:21.874Z,1.80
2023-04-19T13:48:49.693Z,1.40
2023-04-19T13:51:17.460Z,1.30
2023-04-19T13:53:45.234Z,1.60
2023-04-19T13:56:15.085Z,1.73
2023-04-19T13:58:42.848Z,1.80
2023-04-19T14:01:10.870Z,1.70
2023-04-19T14:03:38.867Z,1.70
2023-04-19T14:06:06.994Z,1.93
2023-04-19T14:08:34.751Z,1.87
2023-04-19T14:11:04.276Z,1.90
2023-04-19T14:13:33.440Z,1.90
2023-04-19T14:16:01.558Z,2.37
2023-04-19T14:18:29.377Z,2.07
2023-04-19T14:20:57.243Z,2.30
2023-04-19T14:23:24.961Z,1.97
2023-04-19T14:25:52.738Z,2.37
2023-04-19T14:28:20.651Z,2.00
2023-04-19T14:30:49.794Z,2.27
2023-04-19T14:33:17.609Z,2.20
2023-04-19T14:35:45.646Z,1.97
2023-04-19T14:38:13.414Z,2.03
2023-04-19T14:40:41.250Z,2.20
2023-04-19T14:43:08.959Z,1.80
2023-04-19T14:45:36.740Z,2.00
2023-04-19T14:48:06.816Z,1.80
2023-04-19T14:50:34.659Z,1.90
2023-04-19T14:53:02.434Z,1.80
2023-04-19T14:55:30.296Z,2.00
2023-04-19T14:57:58.070Z,1.70
2023-04-19T15:00:26.201Z,1.90
2023-04-19T15:02:54.225Z,1.80
2023-04-19T15:05:27.821Z,1.60
2023-04-19T15:07:55.746Z,2.87
2023-04-19T15:10:23.601Z,1.77
2023-04-19T15:12:51.376Z,2.07
2023-04-19T15:15:19.310Z,1.70
2023-04-19T15:17:47.578Z,1.90
2023-04-19T15:20:15.530Z,1.77
2023-04-19T15:22:44.738Z,1.80
2023-04-19T15:25:12.979Z,1.53
2023-04-19T15:27:40.784Z,1.80
2023-04-19T15:30:09.573Z,1.77
2023-04-19T15:32:38.754Z,1.80
2023-04-19T15:35:07.427Z,1.70
2023-04-19T15:37:35.235Z,1.53
2023-04-19T15:40:05.156Z,1.90
2023-04-19T15:42:33.012Z,1.93
2023-04-19T15:45:00.868Z,1.70
2023-04-19T15:47:28.710Z,1.83
2023-04-19T15:49:57.405Z,1.37
2023-04-19T15:52:25.599Z,1.50
2023-04-19T15:54:53.822Z,1.47
2023-04-19T15:57:23.059Z,1.60
2023-04-19T15:59:50.829Z,1.97
2023-04-19T16:02:18.853Z,2.00
2023-04-19T16:04:50.289Z,1.60
2023-04-19T16:07:18.150Z,1.60
2023-04-19T16:09:46.195Z,1.60
2023-04-19T16:12:14.084Z,1.60
2023-04-19T16:14:43.245Z,1.40
2023-04-19T16:17:11.060Z,1.53
2023-04-19T16:19:38.876Z,1.30
2023-04-19T16:22:06.757Z,1.47
2023-04-19T16:24:34.521Z,1.50
2023-04-19T16:27:02.823Z,2.00
2023-04-19T16:29:30.769Z,1.80
2023-04-19T16:32:00.187Z,2.00
2023-04-19T16:34:28.164Z,2.10
2023-04-19T16:36:56.260Z,1.67
2023-04-19T16:39:24.060Z,1.83
2023-04-19T16:41:51.864Z,2.10
2023-04-19T16:44:19.670Z,2.10
2023-04-19T16:46:47.478Z,1.60
2023-04-19T16:49:16.961Z,2.10
2023-04-19T16:51:46.171Z,2.03
2023-04-19T16:54:14.082Z,2.10
2023-04-19T16:56:41.897Z,2.37
2023-04-19T16:59:09.843Z,2.00
2023-04-19T17:01:37.743Z,2.10
2023-04-19T17:04:06.290Z,2.30
2023-04-19T17:06:35.683Z,2.23
2023-04-19T17:09:04.936Z,2.30
2023-04-19T17:11:33.126Z,2.40
2023-04-19T17:14:01.044Z,2.40
2023-04-19T17:16:29.105Z,2.30
2023-04-19T17:18:57.436Z,2.13
2023-04-19T17:21:25.886Z,2.27
2023-04-19T17:23:55.180Z,2.30
2023-04-19T17:26:22.866Z,2.10
2023-04-19T17:28:50.866Z,2.17
2023-04-19T17:31:18.691Z,2.50
2023-04-19T17:33:46.749Z,2.50
2023-04-19T17:36:14.928Z,2.60
2023-04-19T17:38:42.749Z,2.53
2023-04-19T17:41:16.080Z,2.60
2023-04-19T17:43:43.953Z,2.20
2023-04-19T17:46:12.138Z,2.20
2023-04-19T17:48:40.047Z,2.57
2023-04-19T17:51:08.117Z,2.37
2023-04-19T17:53:35.949Z,2.20
2023-04-19T17:56:05.233Z,2.70
2023-04-19T17:58:35.949Z,2.50
2023-04-19T18:01:04.466Z,2.50
2023-04-19T18:03:32.614Z,2.23
2023-04-19T18:06:00.640Z,2.30
2023-04-19T18:08:28.522Z,2.30
2023-04-19T18:10:56.275Z,2.30
2023-04-19T18:13:24.205Z,2.60
2023-04-19T18:15:53.512Z,2.30
2023-04-19T18:18:21.394Z,2.37
2023-04-19T18:20:49.753Z,2.73
2023-04-19T18:23:17.944Z,2.57
2023-04-19T18:25:45.855Z,2.63
2023-04-19T18:28:13.576Z,2.80
2023-04-19T18:30:41.359Z,2.70
2023-04-19T18:33:10.553Z,3.07
2023-04-19T18:35:38.400Z,2.53
2023-04-19T18:38:06.202Z,2.83
2023-04-19T18:40:34.020Z,2.80
2023-04-19T18:43:01.888Z,2.97
2023-04-19T18:45:31.330Z,2.50
2023-04-19T18:48:01.264Z,2.63
2023-04-19T18:50:31.119Z,2.30
2023-04-19T18:52:59.095Z,2.50
2023-04-19T18:55:27.512Z,2.50
2023-04-19T18:57:55.358Z,2.57
2023-04-19T19:00:23.237Z,2.73
2023-04-19T19:02:51.251Z,2.50
2023-04-19T19:05:20.543Z,2.60
2023-04-19T19:07:50.061Z,2.53
2023-04-19T19:10:21.860Z,2.83
2023-04-19T19:12:50.890Z,2.10
2023-04-19T19:15:18.978Z,2.57
2023-04-19T19:17:50.344Z,2.17
2023-04-19T19:20:19.784Z,2.40
2023-04-19T19:22:49.296Z,2.10
2023-04-19T19:25:17.158Z,2.33
2023-04-19T19:28:02.961Z,2.07
2023-04-19T19:30:34.574Z,1.60
2023-04-19T19:33:02.738Z,1.87
2023-04-19T19:35:30.793Z,2.10
2023-04-19T19:38:00.216Z,2.00
2023-04-19T19:40:31.162Z,1.90
2023-04-19T19:43:00.427Z,1.80
2023-04-19T19:45:28.580Z,2.07
2023-04-19T19:47:59.062Z,1.60
2023-04-19T19:53:00.742Z,2.00
2023-04-19T19:55:28.962Z,1.70
2023-04-19T20:02:59.171Z,1.80
2023-04-19T20:05:27.768Z,2.50
2023-04-19T20:08:08.592Z,2.00
2023-04-19T20:10:38.145Z,1.70
2023-04-19T20:13:06.969Z,1.70
2023-04-19T20:15:36.096Z,1.70
2023-04-19T20:18:04.350Z,1.50
2023-04-19T20:20:32.415Z,1.73
2023-04-19T20:23:00.244Z,1.67
2023-04-19T20:25:31.179Z,2.00
2023-04-19T20:27:59.265Z,1.70
2023-04-19T20:30:27.409Z,1.40
2023-04-19T20:32:55.453Z,1.63
2023-04-19T20:35:23.335Z,1.57
2023-04-19T20:37:51.476Z,1.73
2023-04-19T20:40:19.313Z,1.83
2023-04-19T20:42:48.804Z,1.53
2023-04-19T20:45:16.687Z,1.83
2023-04-19T20:47:44.473Z,1.80
2023-04-19T20:50:12.299Z,1.73
2023-04-19T20:52:40.566Z,1.60
2023-04-19T20:55:09.472Z,1.70
2023-04-19T20:57:37.325Z,1.80
2023-04-19T21:00:09.427Z,1.77
2023-04-19T21:02:37.918Z,1.77
2023-04-19T21:05:06.439Z,1.70
2023-04-19T21:07:34.329Z,1.53
2023-04-19T21:10:02.266Z,2.03
2023-04-19T21:12:30.127Z,2.00
2023-04-19T21:14:57.883Z,1.60
2023-04-19T21:17:27.265Z,1.93
2023-04-19T21:19:55.177Z,1.87
2023-04-19T21:22:23.000Z,1.80
2023-04-19T21:24:50.802Z,2.03
2023-04-19T21:27:18.633Z,1.90
2023-04-19T21:29:46.522Z,1.57
2023-04-19T21:32:14.402Z,1.77
2023-04-19T21:34:44.735Z,2.03
2023-04-19T21:37:12.445Z,2.03
2023-04-19T21:39:40.255Z,1.77
2023-04-19T21:42:08.067Z,1.83
2023-04-19T21:44:36.171Z,1.93
2023-04-19T21:47:04.292Z,2.30
2023-04-19T21:49:32.342Z,1.83
2023-04-19T21:52:01.578Z,1.97
2023-04-19T21:54:33.983Z,1.57
2023-04-19T21:57:02.912Z,1.80
2023-04-19T21:59:31.459Z,2.03
2023-04-19T22:02:00.298Z,1.90
2023-04-19T22:04:30.880Z,1.87
2023-04-19T22:07:02.280Z,1.97
2023-04-19T22:09:32.045Z,1.70
2023-04-19T22:12:00.227Z,1.97
2023-04-19T22:14:28.334Z,2.00
2023-04-19T22:16:56.756Z,1.80
2023-04-19T22:19:24.919Z,2.10
2023-04-19T22:21:53.470Z,2.00
2023-04-19T22:24:21.919Z,1.53
2023-04-19T22:26:53.072Z,1.77
2023-04-19T22:29:21.419Z,1.80
2023-04-19T22:31:49.543Z,2.13
2023-04-19T22:34:17.411Z,1.63
2023-04-19T22:36:45.354Z,2.03
2023-04-19T22:39:13.158Z,1.97
2023-04-19T22:41:40.983Z,1.80
2023-04-19T22:44:10.111Z,1.67
2023-04-19T22:46:38.050Z,1.87
2023-04-19T22:49:06.204Z,1.60
2023-04-19T22:51:34.191Z,2.27
2023-04-19T22:54:04.255Z,2.00
2023-04-19T22:56:32.147Z,7.47
2023-04-19T22:58:59.894Z,1.87
2023-04-19T23:01:29.080Z,2.07
2023-04-19T23:03:56.899Z,2.03
2023-04-19T23:06:24.700Z,1.90
2023-04-19T23:08:52.908Z,1.60
2023-04-19T23:11:24.812Z,1.60
2023-04-19T23:13:54.033Z,1.87
2023-04-19T23:16:24.263Z,1.60
2023-04-19T23:18:54.412Z,1.60
2023-04-19T23:21:22.181Z,1.70
2023-04-19T23:23:51.404Z,1.50
2023-04-19T23:26:19.182Z,1.40
2023-04-19T23:28:47.001Z,1.80
2023-04-19T23:31:14.813Z,1.67
2023-04-19T23:33:42.680Z,1.80
2023-04-19T23:36:11.920Z,1.73
2023-04-19T23:38:39.806Z,1.60
2023-04-19T23:41:07.674Z,1.80
2023-04-19T23:43:35.503Z,2.00
2023-04-19T23:46:03.508Z,1.80
2023-04-19T23:48:31.300Z,1.97
2023-04-19T23:50:59.178Z,1.73
2023-04-19T23:53:28.436Z,1.80
2023-04-19T23:55:56.312Z,1.63
2023-04-19T23:58:24.100Z,1.47
